sensor_id;sensor_type;location;lat;lon;timestamp;pressure;altitude;pressure_sealevel;temperature;humidity
72409;BME280;60402;48.082;11.628;2022-12-29T00:01:27;95193.13;;;1.85;83.26
72409;BME280;60402;48.082;11.628;2022-12-29T00:03:52;95184.34;;;1.83;82.79
72409;BME280;60402;48.082;11.628;2022-12-29T00:06:18;95187.94;;;1.91;83.11
72409;BME280;60402;48.082;11.628;2022-12-29T00:08:43;95187.56;;;1.89;83.11
72409;BME280;60402;48.082;11.628;2022-12-29T00:11:10;95174.81;;;1.84;82.77
72409;BME280;60402;48.082;11.628;2022-12-29T00:13:36;95188.75;;;1.98;82.84
72409;BME280;60402;48.082;11.628;2022-12-29T00:16:20;95190.34;;;1.96;82.43
72409;BME280;60402;48.082;11.628;2022-12-29T00:18:46;95189.91;;;1.87;82.09
72409;BME280;60402;48.082;11.628;2022-12-29T00:21:14;95192.72;;;1.97;81.58
72409;BME280;60402;48.082;11.628;2022-12-29T00:23:59;95189.16;;;2.08;81.13
72409;BME280;60402;48.082;11.628;2022-12-29T00:26:43;95184.75;;;1.89;82.41
72409;BME280;60402;48.082;11.628;2022-12-29T00:29:27;95144.53;;;1.72;81.49
72409;BME280;60402;48.082;11.628;2022-12-29T00:32:11;95170.03;;;1.85;81.31
72409;BME280;60402;48.082;11.628;2022-12-29T00:34:55;95159.66;;;1.78;81.12
72409;BME280;60402;48.082;11.628;2022-12-29T00:37:47;95172.00;;;1.88;81.15
72409;BME280;60402;48.082;11.628;2022-12-29T00:40:31;95157.69;;;1.75;81.24
72409;BME280;60402;48.082;11.628;2022-12-29T00:43:15;95147.31;;;1.65;81.55
72409;BME280;60402;48.082;11.628;2022-12-29T00:45:59;95170.41;;;1.76;82.03
72409;BME280;60402;48.082;11.628;2022-12-29T00:48:24;95170.00;;;1.77;81.25
72409;BME280;60402;48.082;11.628;2022-12-29T00:51:08;95167.22;;;1.70;81.23
72409;BME280;60402;48.082;11.628;2022-12-29T00:53:34;95137.72;;;1.55;81.57
72409;BME280;60402;48.082;11.628;2022-12-29T00:56:00;95169.22;;;1.70;80.84
72409;BME280;60402;48.082;11.628;2022-12-29T00:58:29;95170.78;;;1.64;81.70
72409;BME280;60402;48.082;11.628;2022-12-29T01:01:05;95155.63;;;1.47;81.69
72409;BME280;60402;48.082;11.628;2022-12-29T01:03:32;95175.13;;;1.58;81.54
72409;BME280;60402;48.082;11.628;2022-12-29T01:06:00;95174.34;;;1.57;81.69
72409;BME280;60402;48.082;11.628;2022-12-29T01:08:29;95146.44;;;1.39;81.76
72409;BME280;60402;48.082;11.628;2022-12-29T01:11:02;95145.63;;;1.35;81.58
72409;BME280;60402;48.082;11.628;2022-12-29T01:13:29;95181.88;;;1.53;81.80
72409;BME280;60402;48.082;11.628;2022-12-29T01:15:55;95150.81;;;1.33;82.15
72409;BME280;60402;48.082;11.628;2022-12-29T01:18:21;95158.34;;;1.36;81.80
72409;BME280;60402;48.082;11.628;2022-12-29T01:20:47;95173.88;;;1.41;82.99
72409;BME280;60402;48.082;11.628;2022-12-29T01:23:12;95152.41;;;1.34;81.80
72409;BME280;60402;48.082;11.628;2022-12-29T01:25:38;95152.00;;;1.36;82.49
72409;BME280;60402;48.082;11.628;2022-12-29T01:28:03;95162.75;;;1.44;81.91
72409;BME280;60402;48.082;11.628;2022-12-29T01:30:28;95173.88;;;1.41;81.67
72409;BME280;60402;48.082;11.628;2022-12-29T01:32:54;95159.13;;;1.26;81.97
72409;BME280;60402;48.082;11.628;2022-12-29T01:35:19;95173.84;;;1.23;81.98
72409;BME280;60402;48.082;11.628;2022-12-29T01:37:44;95187.38;;;1.32;82.50
72409;BME280;60402;48.082;11.628;2022-12-29T01:40:10;95173.44;;;1.32;81.96
72409;BME280;60402;48.082;11.628;2022-12-29T01:42:36;95157.53;;;1.25;81.46
72409;BME280;60402;48.082;11.628;2022-12-29T01:45:15;95190.63;;;1.55;81.25
72409;BME280;60402;48.082;11.628;2022-12-29T01:47:57;95173.13;;;1.54;80.89
72409;BME280;60402;48.082;11.628;2022-12-29T01:50:36;95164.34;;;1.38;81.49
72409;BME280;60402;48.082;11.628;2022-12-29T01:53:11;95165.91;;;1.36;81.55
72409;BME280;60402;48.082;11.628;2022-12-29T01:55:46;95191.81;;;1.54;81.21
72409;BME280;60402;48.082;11.628;2022-12-29T01:58:14;95155.53;;;1.25;81.64
72409;BME280;60402;48.082;11.628;2022-12-29T02:00:40;95128.84;;;1.10;82.20
72409;BME280;60402;48.082;11.628;2022-12-29T02:03:06;95171.09;;;1.41;82.42
72409;BME280;60402;48.082;11.628;2022-12-29T02:05:38;95161.53;;;1.31;82.15
72409;BME280;60402;48.082;11.628;2022-12-29T02:08:05;95177.88;;;1.40;82.09
72409;BME280;60402;48.082;11.628;2022-12-29T02:10:32;95166.72;;;1.36;82.27
72409;BME280;60402;48.082;11.628;2022-12-29T02:12:59;95135.63;;;1.16;82.62
72409;BME280;60402;48.082;11.628;2022-12-29T02:18:39;95172.69;;;1.38;82.53
72409;BME280;60402;48.082;11.628;2022-12-29T02:21:29;95170.34;;;1.54;81.42
72409;BME280;60402;48.082;11.628;2022-12-29T02:30:03;95162.78;;;1.51;80.64
72409;BME280;60402;48.082;11.628;2022-12-29T02:32:47;95159.97;;;1.44;79.67
72409;BME280;60402;48.082;11.628;2022-12-29T02:38:00;95173.22;;;1.79;78.97
72409;BME280;60402;48.082;11.628;2022-12-29T02:40:39;95173.19;;;1.83;78.40
72409;BME280;60402;48.082;11.628;2022-12-29T02:43:26;95178.38;;;1.92;78.75
72409;BME280;60402;48.082;11.628;2022-12-29T02:46:16;95173.22;;;1.97;78.15
72409;BME280;60402;48.082;11.628;2022-12-29T02:48:52;95148.13;;;1.90;77.87
72409;BME280;60402;48.082;11.628;2022-12-29T02:51:43;95178.44;;;2.17;76.92
72409;BME280;60402;48.082;11.628;2022-12-29T02:54:09;95164.06;;;2.15;76.45
72409;BME280;60402;48.082;11.628;2022-12-29T02:56:54;95150.13;;;2.25;76.43
72409;BME280;60402;48.082;11.628;2022-12-29T02:59:20;95140.59;;;2.23;75.72
72409;BME280;60402;48.082;11.628;2022-12-29T03:04:47;95145.34;;;2.51;73.65
72409;BME280;60402;48.082;11.628;2022-12-29T03:07:35;95144.53;;;2.54;74.00
72409;BME280;60402;48.082;11.628;2022-12-29T03:12:54;95152.06;;;2.75;73.79
72409;BME280;60402;48.082;11.628;2022-12-29T03:16:32;95128.16;;;2.67;73.11
72409;BME280;60402;48.082;11.628;2022-12-29T03:18:34;95154.06;;;2.74;73.48
72409;BME280;60402;48.082;11.628;2022-12-29T03:21:08;95148.88;;;2.87;72.41
72409;BME280;60402;48.082;11.628;2022-12-29T03:23:37;95120.13;;;2.87;72.05
72409;BME280;60402;48.082;11.628;2022-12-29T03:26:08;95126.53;;;2.87;72.13
72409;BME280;60402;48.082;11.628;2022-12-29T03:29:01;95133.25;;;3.07;71.23
72409;BME280;60402;48.082;11.628;2022-12-29T03:31:27;95112.53;;;2.94;71.61
72409;BME280;60402;48.082;11.628;2022-12-29T03:33:55;95130.44;;;3.07;71.59
72409;BME280;60402;48.082;11.628;2022-12-29T03:36:27;95138.41;;;3.16;71.49
72409;BME280;60402;48.082;11.628;2022-12-29T03:39:01;95139.22;;;3.06;72.38
72409;BME280;60402;48.082;11.628;2022-12-29T03:41:30;95133.22;;;3.11;72.11
72409;BME280;60402;48.082;11.628;2022-12-29T03:43:56;95136.41;;;3.10;72.28
72409;BME280;60402;48.082;11.628;2022-12-29T03:46:21;95131.63;;;3.14;72.71
72409;BME280;60402;48.082;11.628;2022-12-29T03:48:47;95098.59;;;2.94;71.61
72409;BME280;60402;48.082;11.628;2022-12-29T03:51:12;95119.66;;;3.17;71.65
72409;BME280;60402;48.082;11.628;2022-12-29T03:53:37;95126.03;;;3.14;71.86
72409;BME280;60402;48.082;11.628;2022-12-29T03:56:03;95122.00;;;3.22;71.13
72409;BME280;60402;48.082;11.628;2022-12-29T03:58:28;95129.91;;;3.38;70.80
72409;BME280;60402;48.082;11.628;2022-12-29T04:00:54;95112.00;;;3.28;71.06
72409;BME280;60402;48.082;11.628;2022-12-29T04:03:19;95104.03;;;3.26;71.38
72409;BME280;60402;48.082;11.628;2022-12-29T04:05:44;95121.53;;;3.41;69.93
72409;BME280;60402;48.082;11.628;2022-12-29T04:08:10;95096.88;;;3.25;70.41
72409;BME280;60402;48.082;11.628;2022-12-29T04:10:35;95093.25;;;3.32;70.27
72409;BME280;60402;48.082;11.628;2022-12-29T04:13:00;95109.47;;;3.51;68.97
72409;BME280;60402;48.082;11.628;2022-12-29T04:15:25;95099.59;;;3.40;70.17
72409;BME280;60402;48.082;11.628;2022-12-29T04:17:51;95119.84;;;3.54;69.70
72409;BME280;60402;48.082;11.628;2022-12-29T04:20:16;95108.25;;;3.56;70.17
72409;BME280;60402;48.082;11.628;2022-12-29T04:23:04;95129.75;;;3.70;70.00
72409;BME280;60402;48.082;11.628;2022-12-29T04:25:31;95126.53;;;3.71;69.86
72409;BME280;60402;48.082;11.628;2022-12-29T04:27:56;95103.47;;;3.56;70.09
72409;BME280;60402;48.082;11.628;2022-12-29T04:30:22;95112.25;;;3.58;69.58
72409;BME280;60402;48.082;11.628;2022-12-29T04:32:47;95123.72;;;3.71;70.06
72409;BME280;60402;48.082;11.628;2022-12-29T04:35:13;95127.25;;;3.86;69.82
72409;BME280;60402;48.082;11.628;2022-12-29T04:37:38;95116.53;;;3.74;69.05
72409;BME280;60402;48.082;11.628;2022-12-29T04:40:04;95114.53;;;3.78;69.67
72409;BME280;60402;48.082;11.628;2022-12-29T04:42:29;95115.69;;;3.80;69.26
72409;BME280;60402;48.082;11.628;2022-12-29T04:44:54;95120.44;;;3.87;69.36
72409;BME280;60402;48.082;11.628;2022-12-29T04:47:20;95124.47;;;3.86;69.38
72409;BME280;60402;48.082;11.628;2022-12-29T04:49:45;95117.22;;;3.89;69.02
72409;BME280;60402;48.082;11.628;2022-12-29T04:52:10;95113.22;;;3.90;69.47
72409;BME280;60402;48.082;11.628;2022-12-29T04:54:36;95099.66;;;3.88;68.17
72409;BME280;60402;48.082;11.628;2022-12-29T04:57:01;95081.69;;;3.89;66.78
72409;BME280;60402;48.082;11.628;2022-12-29T04:59:26;95111.50;;;4.10;67.07
72409;BME280;60402;48.082;11.628;2022-12-29T05:01:52;95080.63;;;4.24;65.11
72409;BME280;60402;48.082;11.628;2022-12-29T05:04:17;95093.38;;;4.25;65.90
72409;BME280;60402;48.082;11.628;2022-12-29T05:06:42;95099.41;;;4.24;66.15
72409;BME280;60402;48.082;11.628;2022-12-29T05:09:07;95107.78;;;4.24;66.64
72409;BME280;60402;48.082;11.628;2022-12-29T05:11:33;95103.00;;;4.24;66.33
72409;BME280;60402;48.082;11.628;2022-12-29T05:13:58;95108.59;;;4.21;67.27
72409;BME280;60402;48.082;11.628;2022-12-29T05:16:23;95068.88;;;3.95;67.30
72409;BME280;60402;48.082;11.628;2022-12-29T05:18:48;95103.00;;;4.21;66.86
72409;BME280;60402;48.082;11.628;2022-12-29T05:21:14;95093.88;;;4.13;68.24
72409;BME280;60402;48.082;11.628;2022-12-29T05:23:39;95103.13;;;4.10;68.17
72409;BME280;60402;48.082;11.628;2022-12-29T05:26:04;95084.81;;;3.98;67.97
72409;BME280;60402;48.082;11.628;2022-12-29T05:28:30;95115.00;;;4.21;67.95
72409;BME280;60402;48.082;11.628;2022-12-29T05:30:55;95121.44;;;4.15;68.05
72409;BME280;60402;48.082;11.628;2022-12-29T05:33:20;95117.88;;;4.14;68.51
72409;BME280;60402;48.082;11.628;2022-12-29T05:35:46;95107.50;;;4.07;68.24
72409;BME280;60402;48.082;11.628;2022-12-29T05:38:11;95120.59;;;4.21;68.58
72409;BME280;60402;48.082;11.628;2022-12-29T05:40:36;95108.63;;;4.17;68.21
72409;BME280;60402;48.082;11.628;2022-12-29T05:43:02;95110.53;;;4.27;67.92
72409;BME280;60402;48.082;11.628;2022-12-29T05:45:27;95120.97;;;4.23;68.63
72409;BME280;60402;48.082;11.628;2022-12-29T05:47:53;95110.97;;;4.22;67.82
72409;BME280;60402;48.082;11.628;2022-12-29T05:50:18;95112.88;;;4.32;66.77
72409;BME280;60402;48.082;11.628;2022-12-29T05:52:43;95104.19;;;4.23;66.45
72409;BME280;60402;48.082;11.628;2022-12-29T05:55:09;95113.31;;;4.31;66.88
72409;BME280;60402;48.082;11.628;2022-12-29T05:57:34;95101.44;;;4.20;67.50
72409;BME280;60402;48.082;11.628;2022-12-29T06:00:00;95088.59;;;4.22;66.69
72409;BME280;60402;48.082;11.628;2022-12-29T06:02:25;95105.66;;;4.39;65.94
72409;BME280;60402;48.082;11.628;2022-12-29T06:04:50;95098.91;;;4.32;67.11
72409;BME280;60402;48.082;11.628;2022-12-29T06:07:16;95092.63;;;4.21;67.16
72409;BME280;60402;48.082;11.628;2022-12-29T06:09:41;95090.97;;;4.27;67.62
72409;BME280;60402;48.082;11.628;2022-12-29T06:12:06;95074.75;;;4.08;67.01
72409;BME280;60402;48.082;11.628;2022-12-29T06:14:32;95092.28;;;4.16;67.69
72409;BME280;60402;48.082;11.628;2022-12-29T06:16:57;95094.66;;;4.17;68.26
72409;BME280;60402;48.082;11.628;2022-12-29T06:19:22;95095.84;;;4.20;68.25
72409;BME280;60402;48.082;11.628;2022-12-29T06:21:48;95107.81;;;4.20;68.36
72409;BME280;60402;48.082;11.628;2022-12-29T06:24:13;95072.75;;;4.08;68.15
72409;BME280;60402;48.082;11.628;2022-12-29T06:26:38;95109.34;;;4.28;68.24
72409;BME280;60402;48.082;11.628;2022-12-29T06:29:05;95099.91;;;4.12;68.80
72409;BME280;60402;48.082;11.628;2022-12-29T06:31:32;95081.66;;;3.96;68.71
72409;BME280;60402;48.082;11.628;2022-12-29T06:33:57;95110.19;;;4.22;69.07
72409;BME280;60402;48.082;11.628;2022-12-29T06:36:22;95109.81;;;4.20;69.49
72409;BME280;60402;48.082;11.628;2022-12-29T06:38:48;95092.41;;;3.98;70.51
72409;BME280;60402;48.082;11.628;2022-12-29T06:41:13;95102.78;;;4.01;69.74
72409;BME280;60402;48.082;11.628;2022-12-29T06:43:38;95123.06;;;4.08;70.17
72409;BME280;60402;48.082;11.628;2022-12-29T06:46:04;95115.91;;;4.04;70.13
72409;BME280;60402;48.082;11.628;2022-12-29T06:48:30;95123.06;;;4.08;69.95
72409;BME280;60402;48.082;11.628;2022-12-29T06:50:55;95090.91;;;3.86;70.81
72409;BME280;60402;48.082;11.628;2022-12-29T06:53:20;95102.88;;;3.87;71.52
72409;BME280;60402;48.082;11.628;2022-12-29T06:55:46;95118.75;;;4.00;72.05
72409;BME280;60402;48.082;11.628;2022-12-29T06:58:11;95122.34;;;4.01;71.68
72409;BME280;60402;48.082;11.628;2022-12-29T07:00:36;95109.59;;;3.96;71.33
72409;BME280;60402;48.082;11.628;2022-12-29T07:03:02;95137.81;;;4.13;71.06
72409;BME280;60402;48.082;11.628;2022-12-29T07:05:27;95125.16;;;3.97;71.20
72409;BME280;60402;48.082;11.628;2022-12-29T07:07:54;95103.25;;;3.89;70.54
72409;BME280;60402;48.082;11.628;2022-12-29T07:10:19;95133.38;;;4.19;70.18
72409;BME280;60402;48.082;11.628;2022-12-29T07:12:44;95112.72;;;4.05;69.57
72409;BME280;60402;48.082;11.628;2022-12-29T07:15:10;95126.19;;;4.21;68.72
72409;BME280;60402;48.082;11.628;2022-12-29T07:17:35;95125.69;;;4.33;67.82
72409;BME280;60402;48.082;11.628;2022-12-29T07:20:01;95112.16;;;4.25;66.69
72409;BME280;60402;48.082;11.628;2022-12-29T07:22:26;95113.72;;;4.33;66.30
72409;BME280;60402;48.082;11.628;2022-12-29T07:24:51;95141.09;;;4.52;66.33
72409;BME280;60402;48.082;11.628;2022-12-29T07:27:17;95115.94;;;4.52;65.12
72409;BME280;60402;48.082;11.628;2022-12-29T07:29:42;95125.88;;;4.57;65.55
72409;BME280;60402;48.082;11.628;2022-12-29T07:32:07;95168.44;;;4.79;65.53
72409;BME280;60402;48.082;11.628;2022-12-29T07:34:32;95147.69;;;4.76;65.23
72409;BME280;60402;48.082;11.628;2022-12-29T07:36:58;95166.69;;;4.96;65.10
72409;BME280;60402;48.082;11.628;2022-12-29T07:39:23;95143.84;;;4.97;64.10
72409;BME280;60402;48.082;11.628;2022-12-29T07:41:48;95162.13;;;5.09;64.30
72409;BME280;60402;48.082;11.628;2022-12-29T07:44:14;95137.50;;;4.93;64.27
72409;BME280;60402;48.082;11.628;2022-12-29T07:46:39;95140.97;;;5.04;64.11
72409;BME280;60402;48.082;11.628;2022-12-29T07:49:04;95140.50;;;5.13;64.87
72409;BME280;60402;48.082;11.628;2022-12-29T07:51:30;95178.66;;;5.34;64.91
72409;BME280;60402;48.082;11.628;2022-12-29T07:53:56;95153.69;;;5.12;63.72
72409;BME280;60402;48.082;11.628;2022-12-29T07:56:21;95163.13;;;5.26;63.22
72409;BME280;60402;48.082;11.628;2022-12-29T07:58:47;95140.09;;;5.45;62.89
72409;BME280;60402;48.082;11.628;2022-12-29T08:01:12;95163.31;;;5.76;61.52
72409;BME280;60402;48.082;11.628;2022-12-29T08:03:37;95166.81;;;6.42;60.52
72409;BME280;60402;48.082;11.628;2022-12-29T08:06:03;95149.59;;;6.86;59.15
72409;BME280;60402;48.082;11.628;2022-12-29T08:08:28;95175.44;;;7.01;58.18
72409;BME280;60402;48.082;11.628;2022-12-29T08:10:54;95174.69;;;7.80;56.83
72409;BME280;60402;48.082;11.628;2022-12-29T08:13:19;95180.59;;;8.75;55.04
72409;BME280;60402;48.082;11.628;2022-12-29T08:15:44;95164.00;;;9.84;51.98
72409;BME280;60402;48.082;11.628;2022-12-29T08:18:10;95161.28;;;10.35;49.72
72409;BME280;60402;48.082;11.628;2022-12-29T08:20:35;95174.19;;;12.35;44.96
72409;BME280;60402;48.082;11.628;2022-12-29T08:23:00;95170.19;;;13.71;41.44
72409;BME280;60402;48.082;11.628;2022-12-29T08:25:26;95164.75;;;14.38;38.92
72409;BME280;60402;48.082;11.628;2022-12-29T08:27:51;95172.38;;;14.13;37.50
72409;BME280;60402;48.082;11.628;2022-12-29T08:30:16;95176.78;;;15.26;35.82
72409;BME280;60402;48.082;11.628;2022-12-29T08:32:42;95159.31;;;15.33;36.02
72409;BME280;60402;48.082;11.628;2022-12-29T08:35:07;95156.09;;;14.32;36.28
72409;BME280;60402;48.082;11.628;2022-12-29T08:37:33;95179.66;;;13.00;39.22
72409;BME280;60402;48.082;11.628;2022-12-29T08:39:59;95158.19;;;14.04;39.55
72409;BME280;60402;48.082;11.628;2022-12-29T08:42:28;95180.66;;;12.66;39.45
72409;BME280;60402;48.082;11.628;2022-12-29T08:44:58;95178.56;;;13.66;39.04
72409;BME280;60402;48.082;11.628;2022-12-29T08:47:24;95164.16;;;14.24;37.75
72409;BME280;60402;48.082;11.628;2022-12-29T08:49:49;95167.66;;;14.01;38.91
72409;BME280;60402;48.082;11.628;2022-12-29T08:52:15;95171.78;;;14.00;37.08
72409;BME280;60402;48.082;11.628;2022-12-29T08:54:40;95181.91;;;13.15;38.54
72409;BME280;60402;48.082;11.628;2022-12-29T08:57:05;95176.00;;;13.40;38.96
72409;BME280;60402;48.082;11.628;2022-12-29T08:59:31;95163.41;;;13.41;38.49
72409;BME280;60402;48.082;11.628;2022-12-29T09:01:56;95193.22;;;13.73;38.01
72409;BME280;60402;48.082;11.628;2022-12-29T09:04:21;95171.88;;;15.51;36.19
72409;BME280;60402;48.082;11.628;2022-12-29T09:06:49;95176.56;;;17.00;35.28
72409;BME280;60402;48.082;11.628;2022-12-29T09:09:14;95187.16;;;17.14;33.52
72409;BME280;60402;48.082;11.628;2022-12-29T09:11:40;95180.13;;;16.12;33.24
72409;BME280;60402;48.082;11.628;2022-12-29T09:14:06;95167.72;;;16.83;33.64
72409;BME280;60402;48.082;11.628;2022-12-29T09:16:32;95170.38;;;17.57;32.72
72409;BME280;60402;48.082;11.628;2022-12-29T09:18:57;95169.78;;;17.32;34.35
72409;BME280;60402;48.082;11.628;2022-12-29T09:21:23;95173.03;;;17.25;33.00
72409;BME280;60402;48.082;11.628;2022-12-29T09:23:48;95188.16;;;15.98;33.53
72409;BME280;60402;48.082;11.628;2022-12-29T09:26:13;95164.97;;;15.91;35.66
72409;BME280;60402;48.082;11.628;2022-12-29T09:28:39;95189.19;;;15.38;36.57
72409;BME280;60402;48.082;11.628;2022-12-29T09:31:05;95178.09;;;14.83;37.32
72409;BME280;60402;48.082;11.628;2022-12-29T09:33:31;95202.06;;;13.75;38.80
72409;BME280;60402;48.082;11.628;2022-12-29T09:35:58;95178.44;;;13.11;39.10
72409;BME280;60402;48.082;11.628;2022-12-29T09:38:24;95193.03;;;12.28;40.88
72409;BME280;60402;48.082;11.628;2022-12-29T09:41:01;95160.31;;;11.84;41.51
72409;BME280;60402;48.082;11.628;2022-12-29T09:43:51;95174.75;;;13.41;39.65
72409;BME280;60402;48.082;11.628;2022-12-29T09:46:37;95194.34;;;13.76;38.48
72409;BME280;60402;48.082;11.628;2022-12-29T09:49:31;95181.53;;;14.26;36.78
72409;BME280;60402;48.082;11.628;2022-12-29T09:52:11;95172.25;;;13.89;37.90
72409;BME280;60402;48.082;11.628;2022-12-29T09:57:27;95157.69;;;12.42;39.64
72409;BME280;60402;48.082;11.628;2022-12-29T09:59:59;95157.25;;;11.78;41.38
72409;BME280;60402;48.082;11.628;2022-12-29T10:02:37;95167.88;;;11.52;41.62
72409;BME280;60402;48.082;11.628;2022-12-29T10:05:08;95157.34;;;10.83;42.82
72409;BME280;60402;48.082;11.628;2022-12-29T10:07:46;95166.25;;;10.94;42.44
72409;BME280;60402;48.082;11.628;2022-12-29T10:10:37;95149.84;;;10.77;43.86
72409;BME280;60402;48.082;11.628;2022-12-29T10:13:25;95150.78;;;10.61;43.73
72409;BME280;60402;48.082;11.628;2022-12-29T10:16:08;95139.59;;;10.70;44.31
72409;BME280;60402;48.082;11.628;2022-12-29T10:19:17;95147.63;;;10.59;45.20
72409;BME280;60402;48.082;11.628;2022-12-29T10:24:34;95147.56;;;10.20;44.50
72409;BME280;60402;48.082;11.628;2022-12-29T10:27:03;95113.78;;;9.91;44.66
72409;BME280;60402;48.082;11.628;2022-12-29T10:29:37;95121.72;;;10.09;44.17
72409;BME280;60402;48.082;11.628;2022-12-29T10:32:36;95142.63;;;10.24;43.64
72409;BME280;60402;48.082;11.628;2022-12-29T10:35:24;95137.09;;;10.34;44.72
72409;BME280;60402;48.082;11.628;2022-12-29T10:38:09;95149.66;;;10.33;44.68
72409;BME280;60402;48.082;11.628;2022-12-29T10:40:40;95136.31;;;10.33;44.63
72409;BME280;60402;48.082;11.628;2022-12-29T10:43:27;95145.59;;;10.46;44.21
72409;BME280;60402;48.082;11.628;2022-12-29T10:45:55;95145.28;;;10.44;44.17
72409;BME280;60402;48.082;11.628;2022-12-29T10:48:25;95148.31;;;10.50;43.80
72409;BME280;60402;48.082;11.628;2022-12-29T10:50:55;95132.16;;;10.38;43.76
72409;BME280;60402;48.082;11.628;2022-12-29T10:53:25;95112.00;;;10.23;44.93
72409;BME280;60402;48.082;11.628;2022-12-29T10:55:52;95099.41;;;10.40;44.47
72409;BME280;60402;48.082;11.628;2022-12-29T10:58:19;95093.97;;;10.46;45.02
72409;BME280;60402;48.082;11.628;2022-12-29T11:00:53;95128.72;;;10.81;44.00
72409;BME280;60402;48.082;11.628;2022-12-29T11:06:07;95085.47;;;10.59;43.58
72409;BME280;60402;48.082;11.628;2022-12-29T11:08:38;95107.25;;;10.84;43.16
72409;BME280;60402;48.082;11.628;2022-12-29T11:11:06;95100.75;;;10.96;42.66
72409;BME280;60402;48.082;11.628;2022-12-29T11:13:35;95096.22;;;11.11;42.79
72409;BME280;60402;48.082;11.628;2022-12-29T11:16:11;95100.69;;;11.21;41.99
72409;BME280;60402;48.082;11.628;2022-12-29T11:18:38;95097.78;;;11.12;41.30
72409;BME280;60402;48.082;11.628;2022-12-29T11:21:06;95102.53;;;11.15;40.45
72409;BME280;60402;48.082;11.628;2022-12-29T11:23:35;95089.88;;;11.29;42.28
72409;BME280;60402;48.082;11.628;2022-12-29T11:26:11;95055.63;;;11.27;40.59
72409;BME280;60402;48.082;11.628;2022-12-29T11:28:38;95053.00;;;11.11;41.47
72409;BME280;60402;48.082;11.628;2022-12-29T11:31:05;95057.69;;;11.26;41.18
72409;BME280;60402;48.082;11.628;2022-12-29T11:33:32;95085.38;;;11.32;40.79
72409;BME280;60402;48.082;11.628;2022-12-29T11:36:11;95069.47;;;11.25;40.80
72409;BME280;60402;48.082;11.628;2022-12-29T11:38:56;95077.47;;;11.26;41.39
72409;BME280;60402;48.082;11.628;2022-12-29T11:41:29;95080.53;;;11.54;40.46
72409;BME280;60402;48.082;11.628;2022-12-29T11:43:59;95071.56;;;11.56;40.89
72409;BME280;60402;48.082;11.628;2022-12-29T11:46:27;95068.06;;;11.51;40.49
72409;BME280;60402;48.082;11.628;2022-12-29T11:48:54;95074.31;;;11.68;39.98
72409;BME280;60402;48.082;11.628;2022-12-29T11:51:26;95073.59;;;11.77;39.71
72409;BME280;60402;48.082;11.628;2022-12-29T11:53:58;95066.03;;;11.74;38.25
72409;BME280;60402;48.082;11.628;2022-12-29T11:56:41;95068.03;;;11.86;39.60
72409;BME280;60402;48.082;11.628;2022-12-29T12:02:22;95076.66;;;11.83;39.32
72409;BME280;60402;48.082;11.628;2022-12-29T12:04:50;95082.69;;;11.94;38.91
72409;BME280;60402;48.082;11.628;2022-12-29T12:07:24;95064.72;;;11.88;38.81
72409;BME280;60402;48.082;11.628;2022-12-29T12:09:58;95057.53;;;11.74;38.70
72409;BME280;60402;48.082;11.628;2022-12-29T12:12:41;95048.44;;;11.57;39.10
72409;BME280;60402;48.082;11.628;2022-12-29T12:15:18;95064.38;;;11.64;39.00
72409;BME280;60402;48.082;11.628;2022-12-29T12:20:44;95078.78;;;11.57;39.47
72409;BME280;60402;48.082;11.628;2022-12-29T12:26:09;95069.78;;;11.49;41.25
72409;BME280;60402;48.082;11.628;2022-12-29T12:28:53;95047.75;;;11.44;41.14
72409;BME280;60402;48.082;11.628;2022-12-29T12:31:46;95058.78;;;11.51;41.07
72409;BME280;60402;48.082;11.628;2022-12-29T12:34:22;95059.44;;;11.55;41.15
72409;BME280;60402;48.082;11.628;2022-12-29T12:42:44;95047.16;;;11.49;41.54
72409;BME280;60402;48.082;11.628;2022-12-29T12:48:11;95052.34;;;11.50;42.46
72409;BME280;60402;48.082;11.628;2022-12-29T12:53:56;95035.25;;;11.54;41.65
72409;BME280;60402;48.082;11.628;2022-12-29T12:56:32;95036.22;;;11.38;42.40
72409;BME280;60402;48.082;11.628;2022-12-29T12:59:16;95020.06;;;11.17;43.21
72409;BME280;60402;48.082;11.628;2022-12-29T13:10:15;95035.63;;;11.21;43.78
72409;BME280;60402;48.082;11.628;2022-12-29T13:15:34;95039.25;;;11.22;44.32
72409;BME280;60402;48.082;11.628;2022-12-29T13:18:23;95032.03;;;11.21;44.21
72409;BME280;60402;48.082;11.628;2022-12-29T13:34:40;95006.81;;;10.92;45.23
72409;BME280;60402;48.082;11.628;2022-12-29T13:37:15;95002.63;;;10.96;45.78
72409;BME280;60402;48.082;11.628;2022-12-29T13:39:55;95001.22;;;10.79;46.01
72409;BME280;60402;48.082;11.628;2022-12-29T13:42:22;95025.00;;;10.91;46.08
72409;BME280;60402;48.082;11.628;2022-12-29T13:48:00;95033.41;;;10.82;46.86
72409;BME280;60402;48.082;11.628;2022-12-29T13:50:29;95034.34;;;10.79;46.47
72409;BME280;60402;48.082;11.628;2022-12-29T13:53:16;95038.06;;;10.75;46.83
72409;BME280;60402;48.082;11.628;2022-12-29T13:58:37;95035.16;;;10.66;48.15
72409;BME280;60402;48.082;11.628;2022-12-29T14:04:00;95033.28;;;10.51;47.97
72409;BME280;60402;48.082;11.628;2022-12-29T14:06:32;95024.50;;;10.36;48.71
72409;BME280;60402;48.082;11.628;2022-12-29T14:09:02;95038.16;;;10.37;48.73
72409;BME280;60402;48.082;11.628;2022-12-29T14:11:33;95039.50;;;10.33;48.77
72409;BME280;60402;48.082;11.628;2022-12-29T14:13:59;95042.56;;;10.26;49.13
72409;BME280;60402;48.082;11.628;2022-12-29T14:16:35;95049.66;;;10.17;49.27
72409;BME280;60402;48.082;11.628;2022-12-29T14:19:09;95042.88;;;10.15;49.02
72409;BME280;60402;48.082;11.628;2022-12-29T14:21:36;95024.03;;;9.99;49.60
72409;BME280;60402;48.082;11.628;2022-12-29T14:24:37;95038.63;;;9.97;48.83
72409;BME280;60402;48.082;11.628;2022-12-29T14:34:57;95028.31;;;9.78;49.56
72409;BME280;60402;48.082;11.628;2022-12-29T14:37:36;95020.06;;;9.58;49.76
72409;BME280;60402;48.082;11.628;2022-12-29T14:40:24;95042.66;;;9.71;50.10
72409;BME280;60402;48.082;11.628;2022-12-29T14:42:53;95026.81;;;9.48;50.23